createdAt,value
2022-11-26T00:00:15.305Z,24.70
2022-11-26T00:02:46.823Z,24.50
2022-11-26T00:05:18.507Z,24.60
2022-11-26T00:07:57.901Z,24.60
2022-11-26T00:10:31.212Z,24.60
2022-11-26T00:13:02.735Z,24.50
2022-11-26T00:15:33.988Z,24.40
2022-11-26T00:18:04.368Z,24.40
2022-11-26T00:20:34.895Z,24.30
2022-11-26T00:23:06.369Z,24.20
2022-11-26T00:25:48.956Z,24.30
2022-11-26T00:28:31.284Z,24.30
2022-11-26T00:31:04.380Z,24.50
2022-11-26T00:33:35.640Z,24.50
2022-11-26T00:36:28.691Z,24.50
2022-11-26T00:39:06.241Z,24.70
2022-11-26T00:41:41.608Z,24.70
2022-11-26T00:44:24.716Z,24.70
2022-11-26T00:46:55.517Z,24.80
2022-11-26T00:49:25.956Z,24.80
2022-11-26T00:51:56.814Z,24.80
2022-11-26T00:54:27.397Z,24.80
2022-11-26T00:56:57.923Z,24.80
2022-11-26T00:59:28.386Z,25.00
2022-11-26T01:01:59.353Z,25.00
2022-11-26T01:04:33.436Z,25.00
2022-11-26T01:07:04.073Z,24.90
2022-11-26T01:09:35.024Z,24.80
2022-11-26T01:12:06.174Z,24.80
2022-11-26T01:14:36.603Z,24.80
2022-11-26T01:17:11.701Z,24.90
2022-11-26T01:19:42.274Z,24.80
2022-11-26T01:22:25.003Z,24.90
2022-11-26T01:24:55.393Z,25.20
2022-11-26T01:27:25.622Z,25.10
2022-11-26T01:29:56.047Z,25.20
2022-11-26T01:32:29.621Z,25.30
2022-11-26T01:35:00.241Z,25.30
2022-11-26T01:37:30.694Z,25.40
2022-11-26T01:40:01.161Z,25.60
2022-11-26T01:42:44.133Z,25.60
2022-11-26T01:45:20.614Z,25.60
2022-11-26T01:47:52.422Z,25.60
2022-11-26T01:50:50.335Z,25.70
2022-11-26T01:53:52.759Z,25.70
2022-11-26T01:56:48.358Z,25.80
2022-11-26T01:59:33.896Z,25.60
2022-11-26T02:02:06.491Z,25.70
2022-11-26T02:04:43.571Z,25.70
2022-11-26T02:07:14.066Z,25.90
2022-11-26T02:09:45.729Z,26.10
2022-11-26T02:12:16.715Z,26.10
2022-11-26T02:14:48.479Z,26.10
2022-11-26T02:17:58.308Z,26.10
2022-11-26T02:21:07.631Z,26.10
2022-11-26T02:24:15.642Z,26.20
2022-11-26T02:27:11.051Z,26.30
2022-11-26T02:30:09.149Z,26.20
2022-11-26T02:32:54.957Z,26.40
2022-11-26T02:35:48.962Z,26.50
2022-11-26T02:38:34.490Z,26.60
2022-11-26T02:41:05.886Z,26.50
2022-11-26T02:43:38.821Z,26.50
2022-11-26T02:46:19.137Z,26.60
2022-11-26T02:48:52.921Z,26.80
2022-11-26T02:51:34.597Z,26.80
2022-11-26T02:54:07.079Z,26.90
2022-11-26T02:56:38.352Z,26.90
2022-11-26T02:59:10.135Z,26.90
2022-11-26T03:01:56.553Z,26.90
2022-11-26T03:04:37.754Z,27.00
2022-11-26T03:07:11.433Z,27.10
2022-11-26T03:09:59.989Z,27.30
2022-11-26T03:12:31.663Z,27.30
2022-11-26T03:15:02.288Z,27.30
2022-11-26T03:17:33.231Z,27.40
2022-11-26T03:20:05.343Z,27.40
2022-11-26T03:22:36.042Z,27.40
2022-11-26T03:25:08.030Z,27.40
2022-11-26T03:27:38.248Z,27.50
2022-11-26T03:30:10.321Z,27.70
2022-11-26T03:32:40.699Z,27.70
2022-11-26T03:35:11.391Z,27.80
2022-11-26T03:37:42.819Z,27.70
2022-11-26T03:40:13.640Z,27.70
2022-11-26T03:42:44.981Z,27.50
2022-11-26T03:45:15.238Z,27.90
2022-11-26T03:47:45.937Z,28.10
2022-11-26T03:50:16.889Z,28.40
2022-11-26T03:52:47.243Z,28.50
2022-11-26T03:55:17.741Z,28.60
2022-11-26T03:57:48.875Z,28.60
2022-11-26T04:00:20.080Z,28.50
2022-11-26T04:02:50.760Z,28.60
2022-11-26T04:05:22.092Z,28.90
2022-11-26T04:07:52.864Z,29.00
2022-11-26T04:10:23.954Z,29.20
2022-11-26T04:12:54.808Z,29.60
2022-11-26T04:15:25.699Z,30.30
2022-11-26T04:17:56.139Z,30.40
2022-11-26T04:20:26.350Z,30.40
2022-11-26T04:22:56.604Z,30.80
2022-11-26T04:25:28.013Z,30.40
2022-11-26T04:27:59.635Z,30.30
2022-11-26T04:30:30.185Z,30.60
2022-11-26T04:33:00.675Z,30.70
2022-11-26T04:35:31.102Z,31.00
2022-11-26T04:38:01.517Z,31.00
2022-11-26T04:40:32.443Z,31.00
2022-11-26T04:43:02.835Z,31.20
2022-11-26T04:45:33.275Z,30.70
2022-11-26T04:48:03.687Z,30.20
2022-11-26T04:50:34.391Z,30.00
2022-11-26T04:53:05.240Z,30.10
2022-11-26T04:55:36.096Z,30.10
2022-11-26T04:58:06.854Z,30.10
2022-11-26T05:00:37.015Z,30.60
2022-11-26T05:03:07.472Z,30.80
2022-11-26T05:05:38.640Z,31.00
2022-11-26T05:08:09.828Z,31.10
2022-11-26T05:10:40.247Z,31.10
2022-11-26T05:13:11.033Z,31.40
2022-11-26T05:15:41.519Z,31.50
2022-11-26T05:18:12.378Z,31.80
2022-11-26T05:20:43.090Z,31.30
2022-11-26T05:23:13.502Z,31.60
2022-11-26T05:25:44.541Z,31.70
2022-11-26T05:28:15.411Z,31.80
2022-11-26T05:30:46.014Z,32.00
2022-11-26T05:33:17.154Z,32.30
2022-11-26T05:35:48.648Z,32.30
2022-11-26T05:38:19.870Z,32.20
2022-11-26T05:40:50.771Z,32.30
2022-11-26T05:43:21.603Z,32.30
2022-11-26T05:45:51.694Z,31.80
2022-11-26T05:48:21.757Z,32.00
2022-11-26T05:51:00.183Z,32.40
2022-11-26T05:53:32.045Z,32.70
2022-11-26T05:56:02.538Z,32.80
2022-11-26T05:58:33.495Z,33.00
2022-11-26T06:01:08.062Z,33.10
2022-11-26T06:03:39.725Z,33.10
2022-11-26T06:06:10.687Z,33.00
2022-11-26T06:08:41.316Z,32.70
2022-11-26T06:11:14.839Z,32.50
2022-11-26T06:13:45.385Z,32.80
2022-11-26T06:16:15.884Z,32.80
2022-11-26T06:18:46.533Z,32.70
2022-11-26T06:21:17.133Z,32.70
2022-11-26T06:23:55.899Z,32.90
2022-11-26T06:26:29.628Z,33.00
2022-11-26T06:29:00.335Z,33.10
2022-11-26T06:31:30.918Z,33.30
2022-11-26T06:34:01.621Z,33.40
2022-11-26T06:36:31.808Z,33.70
2022-11-26T06:39:02.277Z,34.00
2022-11-26T06:41:32.688Z,33.90
2022-11-26T06:44:03.217Z,33.90
2022-11-26T06:46:35.445Z,34.10
2022-11-26T06:49:08.196Z,33.90
2022-11-26T06:51:38.334Z,33.70
2022-11-26T06:54:08.519Z,33.70
2022-11-26T06:56:38.705Z,33.00
2022-11-26T06:59:09.112Z,33.60
2022-11-26T07:01:40.379Z,33.50
2022-11-26T07:04:12.056Z,33.70
2022-11-26T07:06:42.908Z,33.60
2022-11-26T07:09:14.153Z,33.80
2022-11-26T07:11:45.082Z,33.40
2022-11-26T07:14:15.434Z,34.00
2022-11-26T07:16:45.514Z,34.00
2022-11-26T07:19:18.936Z,34.20
2022-11-26T07:21:49.848Z,34.40
2022-11-26T07:24:20.606Z,34.20
2022-11-26T07:26:51.202Z,34.00
2022-11-26T07:29:21.542Z,34.20
2022-11-26T07:31:51.804Z,34.40
2022-11-26T07:34:22.665Z,34.20
2022-11-26T07:36:57.865Z,34.40
2022-11-26T07:39:28.437Z,34.60
2022-11-26T07:41:58.479Z,34.30
2022-11-26T07:44:28.571Z,34.20
2022-11-26T07:46:58.697Z,34.20
2022-11-26T07:49:29.083Z,34.30
2022-11-26T07:51:59.162Z,34.40
2022-11-26T07:54:29.809Z,34.50
2022-11-26T07:56:59.938Z,34.70
2022-11-26T07:59:30.459Z,35.10
2022-11-26T08:02:01.336Z,35.10
2022-11-26T08:04:32.124Z,34.90
2022-11-26T08:07:02.592Z,34.50
2022-11-26T08:09:33.344Z,34.60
2022-11-26T08:12:03.924Z,34.40
2022-11-26T08:14:34.296Z,34.00
2022-11-26T08:17:05.115Z,34.00
2022-11-26T08:19:35.523Z,33.60
2022-11-26T08:22:06.020Z,33.60
2022-11-26T08:24:37.714Z,33.50
2022-11-26T08:27:08.518Z,33.50
2022-11-26T08:29:40.433Z,33.50
2022-11-26T08:32:10.530Z,33.50
2022-11-26T08:34:41.288Z,33.30
2022-11-26T08:37:11.866Z,33.60
2022-11-26T08:39:42.440Z,33.30
2022-11-26T08:42:12.883Z,33.30
2022-11-26T08:44:44.093Z,33.40
2022-11-26T08:47:15.033Z,33.20
2022-11-26T08:49:45.084Z,33.30
2022-11-26T08:52:16.184Z,33.20
2022-11-26T08:54:46.960Z,33.20
2022-11-26T08:57:17.915Z,33.40
2022-11-26T08:59:48.656Z,33.40
2022-11-26T09:02:19.140Z,33.50
2022-11-26T09:04:49.829Z,33.60
2022-11-26T09:07:20.353Z,33.30
2022-11-26T09:09:50.632Z,33.50
2022-11-26T09:12:20.842Z,33.50
2022-11-26T09:14:51.398Z,33.20
2022-11-26T09:17:21.842Z,33.10
2022-11-26T09:19:52.243Z,32.80
2022-11-26T09:22:22.947Z,32.80
2022-11-26T09:24:53.922Z,33.00
2022-11-26T09:27:24.877Z,33.00
2022-11-26T09:29:55.533Z,33.00
2022-11-26T09:32:32.494Z,32.90
2022-11-26T09:35:05.547Z,32.90
2022-11-26T09:37:36.922Z,32.80
2022-11-26T09:40:07.688Z,32.70
2022-11-26T09:43:04.311Z,32.70
2022-11-26T09:45:58.267Z,32.60
2022-11-26T09:48:33.282Z,32.60
2022-11-26T09:51:09.873Z,32.60
2022-11-26T09:53:48.309Z,32.40
2022-11-26T09:56:26.576Z,32.30
2022-11-26T09:59:03.191Z,32.20
2022-11-26T10:01:35.366Z,32.20
2022-11-26T10:04:10.931Z,32.20
2022-11-26T10:07:08.924Z,32.10
2022-11-26T10:10:07.108Z,31.90
2022-11-26T10:13:19.168Z,31.80
2022-11-26T10:16:22.149Z,31.60
2022-11-26T10:19:27.794Z,31.70
2022-11-26T10:22:02.621Z,31.60
2022-11-26T10:24:38.673Z,31.60
2022-11-26T10:27:25.799Z,31.60
2022-11-26T10:30:18.937Z,31.40
2022-11-26T10:32:51.527Z,31.40
2022-11-26T10:35:29.526Z,31.40
2022-11-26T10:38:00.438Z,31.40
2022-11-26T10:40:33.586Z,31.20
2022-11-26T10:43:23.569Z,31.20
2022-11-26T10:45:57.774Z,31.10
2022-11-26T10:48:32.469Z,30.90
2022-11-26T10:51:09.143Z,30.90
2022-11-26T10:53:58.928Z,31.10
2022-11-26T10:56:57.237Z,31.20
2022-11-26T10:59:42.128Z,31.20
2022-11-26T11:02:34.216Z,31.10
2022-11-26T11:05:09.003Z,30.90
2022-11-26T11:07:46.708Z,30.70
2022-11-26T11:10:23.827Z,30.70
2022-11-26T11:13:23.560Z,30.70
2022-11-26T11:16:09.936Z,30.60
2022-11-26T11:18:59.664Z,30.60
2022-11-26T11:21:48.581Z,30.60
2022-11-26T11:24:31.660Z,30.60
2022-11-26T11:27:02.854Z,30.60
2022-11-26T11:29:39.381Z,30.60
2022-11-26T11:32:49.077Z,30.50
2022-11-26T11:35:32.467Z,30.20
2022-11-26T11:38:03.338Z,30.10
2022-11-26T11:40:49.220Z,30.00
2022-11-26T11:43:28.999Z,29.80
2022-11-26T11:46:35.657Z,29.50
2022-11-26T11:49:41.917Z,29.70
2022-11-26T11:52:58.695Z,29.90
2022-11-26T11:56:07.936Z,29.90
2022-11-26T11:59:24.902Z,29.90
2022-11-26T12:02:37.323Z,29.90
2022-11-26T12:05:37.563Z,29.90
2022-11-26T12:08:44.640Z,29.90
2022-11-26T12:12:03.405Z,29.50
2022-11-26T12:14:53.947Z,29.20
2022-11-26T12:17:50.692Z,29.50
2022-11-26T12:20:55.454Z,29.70
2022-11-26T12:23:55.568Z,29.70
2022-11-26T12:26:39.390Z,29.30
2022-11-26T12:29:29.991Z,29.30
2022-11-26T12:32:35.911Z,29.00
2022-11-26T12:35:21.648Z,29.10
2022-11-26T12:38:01.203Z,29.00
2022-11-26T12:40:57.483Z,29.30
2022-11-26T12:44:12.554Z,29.30
2022-11-26T12:47:21.535Z,28.80
2022-11-26T12:50:19.967Z,28.90
2022-11-26T12:53:29.251Z,29.20
2022-11-26T12:56:41.051Z,29.20
2022-11-26T12:59:53.240Z,29.30
2022-11-26T13:02:31.864Z,29.20
2022-11-26T13:05:02.701Z,29.20
2022-11-26T13:08:13.076Z,29.20
2022-11-26T13:11:20.035Z,28.80
2022-11-26T13:14:11.469Z,28.60
2022-11-26T13:17:06.050Z,28.40
2022-11-26T13:20:04.820Z,28.60
2022-11-26T13:23:14.135Z,28.60
2022-11-26T13:26:16.881Z,28.60
2022-11-26T13:29:17.831Z,28.70
2022-11-26T13:32:28.491Z,28.80
2022-11-26T13:35:19.340Z,28.90
2022-11-26T13:38:16.832Z,28.80
2022-11-26T13:41:22.330Z,28.70
2022-11-26T13:44:32.279Z,28.70
2022-11-26T13:47:22.003Z,28.50
2022-11-26T13:50:19.764Z,28.40
2022-11-26T13:53:03.062Z,28.50
2022-11-26T13:55:47.782Z,28.50
2022-11-26T13:58:33.114Z,28.30
2022-11-26T14:01:38.359Z,28.40
2022-11-26T14:04:15.536Z,28.60
2022-11-26T14:07:20.686Z,28.60
2022-11-26T14:09:56.452Z,28.50
2022-11-26T14:13:09.832Z,28.10
2022-11-26T14:16:02.100Z,28.10
2022-11-26T14:18:58.355Z,28.30
2022-11-26T14:21:32.306Z,28.50
2022-11-26T14:24:04.495Z,28.20
2022-11-26T14:26:45.656Z,28.00
2022-11-26T14:29:23.647Z,28.00
2022-11-26T14:31:57.097Z,27.80
2022-11-26T14:34:53.374Z,27.90
2022-11-26T14:37:26.817Z,28.20
2022-11-26T14:40:04.042Z,28.10
2022-11-26T14:42:37.780Z,27.80
2022-11-26T14:45:19.326Z,27.70
2022-11-26T14:47:53.205Z,27.90
2022-11-26T14:50:26.796Z,27.80
2022-11-26T14:53:03.118Z,27.80
2022-11-26T14:55:34.752Z,27.90
2022-11-26T14:58:32.330Z,28.00
2022-11-26T15:01:20.414Z,27.90
2022-11-26T15:04:00.247Z,27.60
2022-11-26T15:06:44.325Z,27.60
2022-11-26T15:09:23.241Z,27.70
2022-11-26T15:12:09.229Z,27.60
2022-11-26T15:15:00.447Z,27.60
2022-11-26T15:17:32.648Z,27.70
2022-11-26T15:20:08.268Z,27.50
2022-11-26T15:22:42.207Z,27.40
2022-11-26T15:25:39.805Z,27.40
2022-11-26T15:28:24.555Z,27.40
2022-11-26T15:31:04.111Z,27.50
2022-11-26T15:33:36.509Z,27.50
2022-11-26T15:36:14.277Z,27.40
2022-11-26T15:39:09.959Z,27.40
2022-11-26T15:41:43.597Z,27.40
2022-11-26T15:44:24.517Z,27.30
2022-11-26T15:46:57.219Z,27.30
2022-11-26T15:49:36.966Z,27.30
2022-11-26T15:52:11.141Z,27.20
2022-11-26T15:55:11.296Z,27.10
2022-11-26T15:57:42.795Z,27.00
2022-11-26T16:00:35.389Z,27.00
2022-11-26T16:03:06.942Z,26.80
2022-11-26T16:05:42.187Z,26.80
2022-11-26T16:08:32.779Z,26.80
2022-11-26T16:11:21.698Z,26.90
2022-11-26T16:13:52.096Z,26.90
2022-11-26T16:16:27.770Z,27.00
2022-11-26T16:19:03.229Z,26.90
2022-11-26T16:21:36.440Z,26.70
2022-11-26T16:24:21.568Z,26.50
2022-11-26T16:27:30.888Z,26.40
2022-11-26T16:30:03.681Z,26.30
2022-11-26T16:32:35.036Z,26.40
2022-11-26T16:35:29.915Z,26.50
2022-11-26T16:37:56.339Z,26.40
2022-11-26T16:40:26.593Z,26.40
2022-11-26T16:42:57.247Z,26.40
2022-11-26T16:45:27.686Z,26.30
2022-11-26T16:47:58.280Z,26.40
2022-11-26T16:50:30.008Z,26.30
2022-11-26T16:53:00.372Z,26.20
2022-11-26T16:55:31.161Z,26.30
2022-11-26T16:58:03.900Z,26.50
2022-11-26T17:00:35.523Z,26.50
2022-11-26T17:03:07.274Z,26.60
2022-11-26T17:05:43.429Z,26.70
2022-11-26T17:08:15.034Z,26.50
2022-11-26T17:10:46.528Z,26.50
2022-11-26T17:13:18.292Z,26.30
2022-11-26T17:15:50.990Z,26.50
2022-11-26T17:18:26.288Z,26.60
2022-11-26T17:20:56.943Z,26.50
2022-11-26T17:23:27.418Z,26.40
2022-11-26T17:25:58.472Z,26.40
2022-11-26T17:28:29.324Z,26.40
2022-11-26T17:31:00.902Z,26.30
2022-11-26T17:33:31.288Z,26.20
2022-11-26T17:36:01.993Z,26.30
2022-11-26T17:38:32.499Z,26.40
2022-11-26T17:41:03.781Z,26.40
2022-11-26T17:43:34.139Z,26.20
2022-11-26T17:46:04.669Z,26.20
2022-11-26T17:48:34.941Z,26.30
2022-11-26T17:51:06.112Z,26.50
2022-11-26T17:53:36.848Z,26.40
2022-11-26T17:56:07.555Z,26.20
2022-11-26T17:58:38.603Z,26.00
2022-11-26T18:01:09.457Z,25.90
2022-11-26T18:03:39.966Z,26.00
2022-11-26T18:06:15.999Z,26.10
2022-11-26T18:08:47.187Z,26.10
2022-11-26T18:11:18.670Z,26.10
2022-11-26T18:13:49.767Z,26.20
2022-11-26T18:16:20.300Z,26.00
2022-11-26T18:18:50.933Z,25.90
2022-11-26T18:21:21.055Z,25.90
2022-11-26T18:23:51.511Z,26.00
2022-11-26T18:26:22.109Z,26.10
2022-11-26T18:28:52.258Z,26.20
2022-11-26T18:31:22.541Z,26.20
2022-11-26T18:33:53.439Z,26.10
2022-11-26T18:36:23.968Z,25.90
2022-11-26T18:38:54.316Z,25.90
2022-11-26T18:41:25.066Z,25.90
2022-11-26T18:43:55.485Z,26.00
2022-11-26T18:46:25.871Z,25.90
2022-11-26T18:48:58.667Z,26.00
2022-11-26T18:51:29.157Z,26.00
2022-11-26T18:53:59.594Z,25.80
2022-11-26T18:56:29.975Z,25.70
2022-11-26T18:59:00.316Z,25.60
2022-11-26T19:01:32.756Z,25.50
2022-11-26T19:04:02.988Z,25.40
2022-11-26T19:06:34.376Z,25.50
2022-11-26T19:09:12.806Z,25.60
2022-11-26T19:11:42.985Z,25.70
2022-11-26T19:14:17.760Z,25.70
2022-11-26T19:16:52.439Z,25.70
2022-11-26T19:19:23.667Z,25.70
2022-11-26T19:21:59.435Z,25.50
2022-11-26T19:24:32.447Z,25.70
2022-11-26T19:27:02.895Z,25.50
2022-11-26T19:29:33.257Z,25.40
2022-11-26T19:32:04.171Z,25.30
2022-11-26T19:34:34.887Z,25.30
2022-11-26T19:37:04.935Z,25.20
2022-11-26T19:39:35.245Z,25.20
2022-11-26T19:42:05.837Z,25.20
2022-11-26T19:44:37.561Z,25.30
2022-11-26T19:47:08.274Z,25.20
2022-11-26T19:49:38.906Z,25.10
2022-11-26T19:52:09.997Z,25.00
2022-11-26T19:54:41.057Z,25.10
2022-11-26T19:57:11.845Z,25.20
2022-11-26T19:59:42.751Z,25.40
2022-11-26T20:02:13.665Z,25.60
2022-11-26T20:04:44.049Z,25.50
2022-11-26T20:07:14.646Z,25.60
2022-11-26T20:09:45.227Z,25.40
2022-11-26T20:12:15.401Z,25.30
2022-11-26T20:14:45.833Z,25.30
2022-11-26T20:17:16.063Z,25.20
2022-11-26T20:19:46.181Z,25.10
2022-11-26T20:22:16.278Z,25.10
2022-11-26T20:24:46.595Z,25.20
2022-11-26T20:27:16.680Z,25.20
2022-11-26T20:29:47.177Z,25.20
2022-11-26T20:32:17.967Z,25.30
2022-11-26T20:34:48.810Z,25.30
2022-11-26T20:37:18.981Z,25.20
2022-11-26T20:39:49.375Z,25.20
2022-11-26T20:42:20.310Z,25.10
2022-11-26T20:44:50.776Z,25.20
2022-11-26T20:47:21.713Z,25.20
2022-11-26T20:49:52.320Z,25.20
2022-11-26T20:52:25.154Z,25.00
2022-11-26T20:54:55.919Z,24.90
2022-11-26T20:57:26.422Z,24.70
2022-11-26T20:59:57.286Z,24.60
2022-11-26T21:02:29.299Z,24.70
2022-11-26T21:05:02.282Z,24.90
2022-11-26T21:07:32.905Z,24.90
2022-11-26T21:10:02.845Z,25.10
2022-11-26T21:12:33.026Z,25.00
2022-11-26T21:15:03.277Z,24.80
2022-11-26T21:17:34.153Z,24.90
2022-11-26T21:20:05.189Z,24.80
2022-11-26T21:22:35.669Z,24.70
2022-11-26T21:25:06.300Z,24.80
2022-11-26T21:27:37.399Z,24.80
2022-11-26T21:30:08.835Z,24.80
2022-11-26T21:32:39.372Z,24.80
2022-11-26T21:35:09.884Z,24.90
2022-11-26T21:37:40.616Z,25.00
2022-11-26T21:40:11.680Z,25.00
2022-11-26T21:42:42.565Z,24.90
2022-11-26T21:45:13.605Z,24.90
2022-11-26T21:47:44.184Z,24.80
2022-11-26T21:50:15.303Z,24.70
2022-11-26T21:52:45.875Z,24.70
2022-11-26T21:55:16.433Z,24.70
2022-11-26T21:57:47.171Z,24.60
2022-11-26T22:00:19.449Z,24.60
2022-11-26T22:02:50.370Z,24.60
2022-11-26T22:05:21.040Z,24.60
2022-11-26T22:07:51.962Z,24.60
2022-11-26T22:10:23.099Z,24.70
2022-11-26T22:12:53.832Z,24.70
2022-11-26T22:15:24.827Z,24.70
2022-11-26T22:17:55.257Z,24.60
2022-11-26T22:20:25.878Z,24.60
2022-11-26T22:22:57.044Z,24.70
2022-11-26T22:25:27.699Z,24.90
2022-11-26T22:27:58.383Z,25.00
2022-11-26T22:30:29.147Z,24.90
2022-11-26T22:32:59.972Z,24.80
2022-11-26T22:35:30.676Z,24.70
2022-11-26T22:38:01.861Z,24.60
2022-11-26T22:40:32.865Z,24.70
2022-11-26T22:43:04.952Z,24.60
2022-11-26T22:45:35.377Z,24.50
2022-11-26T22:48:05.910Z,24.40
2022-11-26T22:50:36.573Z,24.30
2022-11-26T22:53:08.214Z,24.30
2022-11-26T22:55:38.677Z,24.30
2022-11-26T22:58:08.755Z,24.30
2022-11-26T23:01:00.449Z,24.30
2022-11-26T23:03:33.006Z,24.30
2022-11-26T23:06:13.918Z,24.40
2022-11-26T23:08:45.994Z,24.40
2022-11-26T23:11:23.616Z,24.60
2022-11-26T23:13:54.670Z,24.60
2022-11-26T23:16:27.681Z,24.70
2022-11-26T23:18:59.446Z,24.70
2022-11-26T23:21:34.355Z,24.70
2022-11-26T23:24:05.538Z,24.60
2022-11-26T23:26:38.587Z,24.60
2022-11-26T23:29:10.038Z,24.40
2022-11-26T23:31:44.578Z,24.30
2022-11-26T23:34:16.156Z,24.30
2022-11-26T23:36:47.042Z,24.30
2022-11-26T23:39:18.237Z,24.30
2022-11-26T23:41:48.798Z,24.40
2022-11-26T23:44:19.533Z,24.40
2022-11-26T23:46:49.919Z,24.40
2022-11-26T23:49:20.387Z,24.40
2022-11-26T23:51:51.138Z,24.30
2022-11-26T23:54:21.871Z,24.50
2022-11-26T23:56:52.366Z,24.60
2022-11-26T23:59:23.645Z,24.80
